sensor_id;sensor_type;location;lat;lon;timestamp;P1;durP1;ratioP1;P2;durP2;ratioP2
75941;SDS011;64622;46.220;19.878;2023-07-30T00:00:28;10.05;;;4.65;;
75941;SDS011;64622;46.220;19.878;2023-07-30T00:02:55;14.13;;;4.95;;
75941;SDS011;64622;46.220;19.878;2023-07-30T00:05:21;10.23;;;4.63;;
75941;SDS011;64622;46.220;19.878;2023-07-30T00:07:48;10.38;;;5.15;;
75941;SDS011;64622;46.220;19.878;2023-07-30T00:10:15;10.23;;;4.37;;
75941;SDS011;64622;46.220;19.878;2023-07-30T00:12:42;12.65;;;4.70;;
75941;SDS011;64622;46.220;19.878;2023-07-30T00:15:08;10.98;;;4.82;;
75941;SDS011;64622;46.220;19.878;2023-07-30T00:17:35;12.80;;;4.67;;
75941;SDS011;64622;46.220;19.878;2023-07-30T00:20:02;11.02;;;4.55;;
75941;SDS011;64622;46.220;19.878;2023-07-30T00:22:29;11.65;;;4.78;;
75941;SDS011;64622;46.220;19.878;2023-07-30T00:24:55;10.60;;;4.60;;
75941;SDS011;64622;46.220;19.878;2023-07-30T00:27:22;11.93;;;5.15;;
75941;SDS011;64622;46.220;19.878;2023-07-30T00:29:49;11.73;;;4.97;;
75941;SDS011;64622;46.220;19.878;2023-07-30T00:32:15;10.65;;;5.43;;
75941;SDS011;64622;46.220;19.878;2023-07-30T00:34:43;12.32;;;5.35;;
75941;SDS011;64622;46.220;19.878;2023-07-30T00:37:11;12.37;;;4.97;;
75941;SDS011;64622;46.220;19.878;2023-07-30T00:39:38;11.30;;;4.72;;
75941;SDS011;64622;46.220;19.878;2023-07-30T00:42:04;10.67;;;4.80;;
75941;SDS011;64622;46.220;19.878;2023-07-30T00:44:31;11.45;;;4.72;;
75941;SDS011;64622;46.220;19.878;2023-07-30T00:46:58;14.82;;;5.60;;
75941;SDS011;64622;46.220;19.878;2023-07-30T00:49:25;17.55;;;5.65;;
75941;SDS011;64622;46.220;19.878;2023-07-30T00:51:51;10.65;;;5.15;;
75941;SDS011;64622;46.220;19.878;2023-07-30T00:54:18;14.07;;;5.33;;
75941;SDS011;64622;46.220;19.878;2023-07-30T00:56:49;12.60;;;5.53;;
75941;SDS011;64622;46.220;19.878;2023-07-30T00:59:19;12.52;;;5.78;;
75941;SDS011;64622;46.220;19.878;2023-07-30T01:01:47;13.13;;;6.00;;
75941;SDS011;64622;46.220;19.878;2023-07-30T01:04:14;10.68;;;5.47;;
75941;SDS011;64622;46.220;19.878;2023-07-30T01:06:42;12.17;;;5.60;;
75941;SDS011;64622;46.220;19.878;2023-07-30T01:09:10;11.77;;;5.90;;
75941;SDS011;64622;46.220;19.878;2023-07-30T01:11:37;11.00;;;5.40;;
75941;SDS011;64622;46.220;19.878;2023-07-30T01:14:05;12.30;;;6.22;;
75941;SDS011;64622;46.220;19.878;2023-07-30T01:16:32;12.80;;;6.12;;
75941;SDS011;64622;46.220;19.878;2023-07-30T01:18:59;12.37;;;5.80;;
75941;SDS011;64622;46.220;19.878;2023-07-30T01:21:36;11.75;;;6.35;;
75941;SDS011;64622;46.220;19.878;2023-07-30T01:24:03;11.32;;;5.80;;
75941;SDS011;64622;46.220;19.878;2023-07-30T01:26:32;14.52;;;6.20;;
75941;SDS011;64622;46.220;19.878;2023-07-30T01:29:14;12.15;;;5.90;;
75941;SDS011;64622;46.220;19.878;2023-07-30T01:31:50;11.50;;;6.47;;
75941;SDS011;64622;46.220;19.878;2023-07-30T01:34:22;11.95;;;6.10;;
75941;SDS011;64622;46.220;19.878;2023-07-30T01:36:51;14.65;;;6.55;;
75941;SDS011;64622;46.220;19.878;2023-07-30T01:39:19;17.15;;;6.75;;
75941;SDS011;64622;46.220;19.878;2023-07-30T01:41:46;12.68;;;6.35;;
75941;SDS011;64622;46.220;19.878;2023-07-30T01:44:13;12.47;;;6.37;;
75941;SDS011;64622;46.220;19.878;2023-07-30T01:46:40;12.07;;;6.45;;
75941;SDS011;64622;46.220;19.878;2023-07-30T01:49:06;11.75;;;6.55;;
75941;SDS011;64622;46.220;19.878;2023-07-30T01:51:33;16.95;;;6.62;;
75941;SDS011;64622;46.220;19.878;2023-07-30T01:54:00;14.60;;;6.28;;
75941;SDS011;64622;46.220;19.878;2023-07-30T01:56:26;14.40;;;6.93;;
75941;SDS011;64622;46.220;19.878;2023-07-30T01:58:53;12.75;;;6.28;;
75941;SDS011;64622;46.220;19.878;2023-07-30T02:01:20;10.93;;;6.60;;
75941;SDS011;64622;46.220;19.878;2023-07-30T02:03:48;10.65;;;6.35;;
75941;SDS011;64622;46.220;19.878;2023-07-30T02:06:15;13.52;;;6.50;;
75941;SDS011;64622;46.220;19.878;2023-07-30T02:08:41;12.10;;;7.03;;
75941;SDS011;64622;46.220;19.878;2023-07-30T02:11:08;13.85;;;6.80;;
75941;SDS011;64622;46.220;19.878;2023-07-30T02:13:35;14.95;;;6.32;;
75941;SDS011;64622;46.220;19.878;2023-07-30T02:16:01;16.12;;;6.95;;
75941;SDS011;64622;46.220;19.878;2023-07-30T02:18:28;11.27;;;6.22;;
75941;SDS011;64622;46.220;19.878;2023-07-30T02:20:55;12.60;;;5.80;;
75941;SDS011;64622;46.220;19.878;2023-07-30T02:23:21;10.75;;;5.97;;
75941;SDS011;64622;46.220;19.878;2023-07-30T02:25:48;11.75;;;6.90;;
75941;SDS011;64622;46.220;19.878;2023-07-30T02:28:15;13.48;;;6.87;;
75941;SDS011;64622;46.220;19.878;2023-07-30T02:30:42;18.42;;;7.35;;
75941;SDS011;64622;46.220;19.878;2023-07-30T02:33:09;11.77;;;7.13;;
75941;SDS011;64622;46.220;19.878;2023-07-30T02:35:36;12.40;;;6.82;;
75941;SDS011;64622;46.220;19.878;2023-07-30T02:38:02;12.82;;;6.90;;
75941;SDS011;64622;46.220;19.878;2023-07-30T02:40:30;13.20;;;6.85;;
75941;SDS011;64622;46.220;19.878;2023-07-30T02:42:57;10.20;;;6.78;;
75941;SDS011;64622;46.220;19.878;2023-07-30T02:45:24;13.03;;;6.43;;
75941;SDS011;64622;46.220;19.878;2023-07-30T02:47:50;13.95;;;7.32;;
75941;SDS011;64622;46.220;19.878;2023-07-30T02:50:17;20.77;;;7.45;;
75941;SDS011;64622;46.220;19.878;2023-07-30T02:52:43;12.00;;;6.90;;
75941;SDS011;64622;46.220;19.878;2023-07-30T02:55:10;12.75;;;6.43;;
75941;SDS011;64622;46.220;19.878;2023-07-30T02:57:38;13.53;;;7.67;;
75941;SDS011;64622;46.220;19.878;2023-07-30T03:00:04;12.13;;;7.60;;
75941;SDS011;64622;46.220;19.878;2023-07-30T03:02:32;14.95;;;6.57;;
75941;SDS011;64622;46.220;19.878;2023-07-30T03:04:59;12.55;;;7.62;;
75941;SDS011;64622;46.220;19.878;2023-07-30T03:07:25;14.73;;;7.28;;
75941;SDS011;64622;46.220;19.878;2023-07-30T03:09:52;13.50;;;7.37;;
75941;SDS011;64622;46.220;19.878;2023-07-30T03:12:18;11.80;;;7.62;;
75941;SDS011;64622;46.220;19.878;2023-07-30T03:14:45;11.93;;;7.05;;
75941;SDS011;64622;46.220;19.878;2023-07-30T03:17:12;14.63;;;8.07;;
75941;SDS011;64622;46.220;19.878;2023-07-30T03:19:38;13.38;;;7.25;;
75941;SDS011;64622;46.220;19.878;2023-07-30T03:22:05;11.20;;;6.70;;
75941;SDS011;64622;46.220;19.878;2023-07-30T03:24:32;15.82;;;7.55;;
75941;SDS011;64622;46.220;19.878;2023-07-30T03:26:58;13.95;;;7.07;;
75941;SDS011;64622;46.220;19.878;2023-07-30T03:29:25;14.80;;;7.80;;
75941;SDS011;64622;46.220;19.878;2023-07-30T03:31:51;12.32;;;7.40;;
75941;SDS011;64622;46.220;19.878;2023-07-30T03:34:18;14.60;;;8.30;;
75941;SDS011;64622;46.220;19.878;2023-07-30T03:36:44;12.60;;;7.28;;
75941;SDS011;64622;46.220;19.878;2023-07-30T03:39:11;13.00;;;6.80;;
75941;SDS011;64622;46.220;19.878;2023-07-30T03:41:38;12.40;;;7.07;;
75941;SDS011;64622;46.220;19.878;2023-07-30T03:44:05;15.77;;;6.70;;
75941;SDS011;64622;46.220;19.878;2023-07-30T03:46:31;15.13;;;6.37;;
75941;SDS011;64622;46.220;19.878;2023-07-30T03:48:58;14.35;;;6.50;;
75941;SDS011;64622;46.220;19.878;2023-07-30T03:51:25;12.68;;;6.72;;
75941;SDS011;64622;46.220;19.878;2023-07-30T03:53:51;12.35;;;6.55;;
75941;SDS011;64622;46.220;19.878;2023-07-30T03:56:18;11.60;;;6.25;;
75941;SDS011;64622;46.220;19.878;2023-07-30T03:58:44;12.77;;;6.03;;
75941;SDS011;64622;46.220;19.878;2023-07-30T04:01:11;11.68;;;6.18;;
75941;SDS011;64622;46.220;19.878;2023-07-30T04:03:38;10.52;;;5.37;;
75941;SDS011;64622;46.220;19.878;2023-07-30T04:06:05;14.13;;;5.65;;
75941;SDS011;64622;46.220;19.878;2023-07-30T04:08:31;10.10;;;5.18;;
75941;SDS011;64622;46.220;19.878;2023-07-30T04:10:58;11.07;;;5.00;;
75941;SDS011;64622;46.220;19.878;2023-07-30T04:13:26;12.00;;;5.18;;
75941;SDS011;64622;46.220;19.878;2023-07-30T04:15:52;10.35;;;5.40;;
75941;SDS011;64622;46.220;19.878;2023-07-30T04:18:19;12.45;;;4.78;;
75941;SDS011;64622;46.220;19.878;2023-07-30T04:20:46;10.23;;;4.87;;
75941;SDS011;64622;46.220;19.878;2023-07-30T04:23:12;11.27;;;5.13;;
75941;SDS011;64622;46.220;19.878;2023-07-30T04:25:40;12.65;;;4.90;;
75941;SDS011;64622;46.220;19.878;2023-07-30T04:28:07;11.82;;;4.97;;
75941;SDS011;64622;46.220;19.878;2023-07-30T04:30:33;9.40;;;4.30;;
75941;SDS011;64622;46.220;19.878;2023-07-30T04:33:00;10.38;;;4.50;;
75941;SDS011;64622;46.220;19.878;2023-07-30T04:35:27;9.77;;;4.10;;
75941;SDS011;64622;46.220;19.878;2023-07-30T04:37:54;9.68;;;3.78;;
75941;SDS011;64622;46.220;19.878;2023-07-30T04:40:21;10.40;;;4.18;;
75941;SDS011;64622;46.220;19.878;2023-07-30T04:42:47;9.98;;;4.05;;
75941;SDS011;64622;46.220;19.878;2023-07-30T04:45:14;10.02;;;3.80;;
75941;SDS011;64622;46.220;19.878;2023-07-30T04:47:41;13.03;;;4.10;;
75941;SDS011;64622;46.220;19.878;2023-07-30T04:50:09;11.68;;;4.03;;
75941;SDS011;64622;46.220;19.878;2023-07-30T04:52:35;10.35;;;3.90;;
75941;SDS011;64622;46.220;19.878;2023-07-30T04:55:02;7.85;;;3.50;;
75941;SDS011;64622;46.220;19.878;2023-07-30T04:57:29;9.70;;;3.83;;
75941;SDS011;64622;46.220;19.878;2023-07-30T04:59:55;11.27;;;3.70;;
75941;SDS011;64622;46.220;19.878;2023-07-30T05:02:22;8.48;;;3.70;;
75941;SDS011;64622;46.220;19.878;2023-07-30T05:04:49;12.25;;;3.60;;
75941;SDS011;64622;46.220;19.878;2023-07-30T05:07:15;10.93;;;3.47;;
75941;SDS011;64622;46.220;19.878;2023-07-30T05:09:42;11.02;;;3.42;;
75941;SDS011;64622;46.220;19.878;2023-07-30T05:12:09;10.93;;;3.97;;
75941;SDS011;64622;46.220;19.878;2023-07-30T05:14:35;8.93;;;3.00;;
75941;SDS011;64622;46.220;19.878;2023-07-30T05:17:02;10.77;;;3.42;;
75941;SDS011;64622;46.220;19.878;2023-07-30T05:19:29;7.93;;;2.78;;
75941;SDS011;64622;46.220;19.878;2023-07-30T05:21:55;8.40;;;3.03;;
75941;SDS011;64622;46.220;19.878;2023-07-30T05:24:23;11.30;;;3.40;;
75941;SDS011;64622;46.220;19.878;2023-07-30T05:26:49;9.43;;;3.35;;
75941;SDS011;64622;46.220;19.878;2023-07-30T05:29:15;11.88;;;3.30;;
75941;SDS011;64622;46.220;19.878;2023-07-30T05:31:42;11.95;;;3.30;;
75941;SDS011;64622;46.220;19.878;2023-07-30T05:34:09;10.75;;;3.05;;
75941;SDS011;64622;46.220;19.878;2023-07-30T05:36:35;9.07;;;2.70;;
75941;SDS011;64622;46.220;19.878;2023-07-30T05:39:02;18.58;;;3.22;;
75941;SDS011;64622;46.220;19.878;2023-07-30T05:41:29;9.48;;;2.90;;
75941;SDS011;64622;46.220;19.878;2023-07-30T05:43:55;10.02;;;2.90;;
75941;SDS011;64622;46.220;19.878;2023-07-30T05:46:22;7.43;;;2.53;;
75941;SDS011;64622;46.220;19.878;2023-07-30T05:48:48;8.00;;;2.13;;
75941;SDS011;64622;46.220;19.878;2023-07-30T05:51:15;9.38;;;2.53;;
75941;SDS011;64622;46.220;19.878;2023-07-30T05:53:42;7.82;;;2.20;;
75941;SDS011;64622;46.220;19.878;2023-07-30T05:56:08;8.38;;;2.08;;
75941;SDS011;64622;46.220;19.878;2023-07-30T05:58:35;7.53;;;2.05;;
75941;SDS011;64622;46.220;19.878;2023-07-30T06:01:01;8.57;;;2.17;;
75941;SDS011;64622;46.220;19.878;2023-07-30T06:03:28;8.98;;;2.17;;
75941;SDS011;64622;46.220;19.878;2023-07-30T06:05:55;10.13;;;2.10;;
75941;SDS011;64622;46.220;19.878;2023-07-30T06:08:21;8.30;;;2.10;;
75941;SDS011;64622;46.220;19.878;2023-07-30T06:10:48;8.50;;;2.10;;
75941;SDS011;64622;46.220;19.878;2023-07-30T06:13:15;7.03;;;1.83;;
75941;SDS011;64622;46.220;19.878;2023-07-30T06:15:42;6.80;;;2.05;;
75941;SDS011;64622;46.220;19.878;2023-07-30T06:18:09;8.63;;;2.20;;
75941;SDS011;64622;46.220;19.878;2023-07-30T06:20:35;8.30;;;2.10;;
75941;SDS011;64622;46.220;19.878;2023-07-30T06:23:02;8.75;;;2.20;;
75941;SDS011;64622;46.220;19.878;2023-07-30T06:25:30;9.57;;;2.30;;
75941;SDS011;64622;46.220;19.878;2023-07-30T06:27:57;8.13;;;2.00;;
75941;SDS011;64622;46.220;19.878;2023-07-30T06:30:25;7.55;;;1.60;;
75941;SDS011;64622;46.220;19.878;2023-07-30T06:32:51;10.93;;;2.20;;
75941;SDS011;64622;46.220;19.878;2023-07-30T06:35:18;8.57;;;1.70;;
75941;SDS011;64622;46.220;19.878;2023-07-30T06:37:45;6.43;;;1.80;;
75941;SDS011;64622;46.220;19.878;2023-07-30T06:40:11;6.50;;;1.58;;
75941;SDS011;64622;46.220;19.878;2023-07-30T06:42:38;5.95;;;1.60;;
75941;SDS011;64622;46.220;19.878;2023-07-30T06:45:05;7.93;;;1.92;;
75941;SDS011;64622;46.220;19.878;2023-07-30T06:47:32;10.43;;;1.90;;
75941;SDS011;64622;46.220;19.878;2023-07-30T06:49:59;6.70;;;1.90;;
75941;SDS011;64622;46.220;19.878;2023-07-30T06:52:25;9.55;;;1.80;;
75941;SDS011;64622;46.220;19.878;2023-07-30T06:54:52;5.95;;;1.45;;
75941;SDS011;64622;46.220;19.878;2023-07-30T06:57:18;8.75;;;1.70;;
75941;SDS011;64622;46.220;19.878;2023-07-30T06:59:45;7.32;;;2.00;;
75941;SDS011;64622;46.220;19.878;2023-07-30T07:02:12;8.43;;;1.87;;
75941;SDS011;64622;46.220;19.878;2023-07-30T07:04:38;7.10;;;1.35;;
75941;SDS011;64622;46.220;19.878;2023-07-30T07:07:05;6.72;;;1.70;;
75941;SDS011;64622;46.220;19.878;2023-07-30T07:09:32;8.48;;;1.45;;
75941;SDS011;64622;46.220;19.878;2023-07-30T07:11:58;8.43;;;1.80;;
75941;SDS011;64622;46.220;19.878;2023-07-30T07:14:26;8.33;;;1.70;;
75941;SDS011;64622;46.220;19.878;2023-07-30T07:16:53;6.72;;;1.77;;
75941;SDS011;64622;46.220;19.878;2023-07-30T07:19:22;7.03;;;1.40;;
75941;SDS011;64622;46.220;19.878;2023-07-30T07:21:48;6.18;;;1.67;;
75941;SDS011;64622;46.220;19.878;2023-07-30T07:24:16;6.68;;;1.95;;
75941;SDS011;64622;46.220;19.878;2023-07-30T07:26:42;7.00;;;1.67;;
75941;SDS011;64622;46.220;19.878;2023-07-30T07:29:09;7.00;;;1.52;;
75941;SDS011;64622;46.220;19.878;2023-07-30T07:31:35;10.63;;;1.73;;
75941;SDS011;64622;46.220;19.878;2023-07-30T07:34:02;5.62;;;1.60;;
75941;SDS011;64622;46.220;19.878;2023-07-30T07:36:29;5.85;;;1.45;;
75941;SDS011;64622;46.220;19.878;2023-07-30T07:38:55;9.97;;;1.40;;
75941;SDS011;64622;46.220;19.878;2023-07-30T07:41:22;6.80;;;1.70;;
75941;SDS011;64622;46.220;19.878;2023-07-30T07:43:48;8.85;;;1.70;;
75941;SDS011;64622;46.220;19.878;2023-07-30T07:46:15;7.65;;;1.67;;
75941;SDS011;64622;46.220;19.878;2023-07-30T07:48:43;9.35;;;1.65;;
75941;SDS011;64622;46.220;19.878;2023-07-30T07:51:12;10.90;;;1.77;;
75941;SDS011;64622;46.220;19.878;2023-07-30T07:53:39;6.60;;;1.42;;
75941;SDS011;64622;46.220;19.878;2023-07-30T07:56:06;6.85;;;1.60;;
75941;SDS011;64622;46.220;19.878;2023-07-30T07:58:33;6.25;;;1.58;;
75941;SDS011;64622;46.220;19.878;2023-07-30T08:00:59;7.68;;;1.77;;
75941;SDS011;64622;46.220;19.878;2023-07-30T08:03:26;6.03;;;1.47;;
75941;SDS011;64622;46.220;19.878;2023-07-30T08:05:53;6.03;;;1.50;;
75941;SDS011;64622;46.220;19.878;2023-07-30T08:08:20;6.90;;;1.40;;
75941;SDS011;64622;46.220;19.878;2023-07-30T08:10:47;5.75;;;1.37;;
75941;SDS011;64622;46.220;19.878;2023-07-30T08:13:14;6.15;;;1.67;;
75941;SDS011;64622;46.220;19.878;2023-07-30T08:15:40;8.40;;;1.57;;
75941;SDS011;64622;46.220;19.878;2023-07-30T08:18:07;6.35;;;1.45;;
75941;SDS011;64622;46.220;19.878;2023-07-30T08:20:34;6.57;;;1.50;;
75941;SDS011;64622;46.220;19.878;2023-07-30T08:23:01;9.55;;;1.70;;
75941;SDS011;64622;46.220;19.878;2023-07-30T08:25:28;5.82;;;1.50;;
75941;SDS011;64622;46.220;19.878;2023-07-30T08:27:54;7.00;;;1.53;;
75941;SDS011;64622;46.220;19.878;2023-07-30T08:30:21;7.15;;;1.37;;
75941;SDS011;64622;46.220;19.878;2023-07-30T08:32:47;5.65;;;1.25;;
75941;SDS011;64622;46.220;19.878;2023-07-30T08:35:14;6.43;;;1.33;;
75941;SDS011;64622;46.220;19.878;2023-07-30T08:37:40;15.20;;;2.15;;
75941;SDS011;64622;46.220;19.878;2023-07-30T08:40:08;8.23;;;1.67;;
75941;SDS011;64622;46.220;19.878;2023-07-30T08:42:35;8.38;;;1.60;;
75941;SDS011;64622;46.220;19.878;2023-07-30T08:45:04;6.43;;;1.80;;
75941;SDS011;64622;46.220;19.878;2023-07-30T08:47:35;7.05;;;1.92;;
75941;SDS011;64622;46.220;19.878;2023-07-30T08:50:01;5.60;;;1.12;;
75941;SDS011;64622;46.220;19.878;2023-07-30T08:52:29;6.33;;;1.30;;
75941;SDS011;64622;46.220;19.878;2023-07-30T08:54:57;8.38;;;1.62;;
75941;SDS011;64622;46.220;19.878;2023-07-30T08:57:24;6.00;;;1.40;;
75941;SDS011;64622;46.220;19.878;2023-07-30T08:59:54;6.05;;;1.58;;
75941;SDS011;64622;46.220;19.878;2023-07-30T09:02:30;6.35;;;1.40;;
75941;SDS011;64622;46.220;19.878;2023-07-30T09:05:04;6.40;;;1.50;;
75941;SDS011;64622;46.220;19.878;2023-07-30T09:07:31;6.78;;;1.62;;
75941;SDS011;64622;46.220;19.878;2023-07-30T09:09:58;6.82;;;1.50;;
75941;SDS011;64622;46.220;19.878;2023-07-30T09:12:34;5.57;;;1.20;;
75941;SDS011;64622;46.220;19.878;2023-07-30T09:15:02;5.72;;;1.23;;
75941;SDS011;64622;46.220;19.878;2023-07-30T09:17:33;5.13;;;1.37;;
75941;SDS011;64622;46.220;19.878;2023-07-30T09:20:03;112.97;;;7.85;;
75941;SDS011;64622;46.220;19.878;2023-07-30T09:22:32;6.75;;;1.30;;
75941;SDS011;64622;46.220;19.878;2023-07-30T09:25:01;7.07;;;1.83;;
75941;SDS011;64622;46.220;19.878;2023-07-30T09:27:29;6.78;;;1.80;;
75941;SDS011;64622;46.220;19.878;2023-07-30T09:29:56;5.77;;;1.30;;
75941;SDS011;64622;46.220;19.878;2023-07-30T09:32:27;5.62;;;1.60;;
75941;SDS011;64622;46.220;19.878;2023-07-30T09:34:54;7.65;;;1.30;;
75941;SDS011;64622;46.220;19.878;2023-07-30T09:37:22;6.57;;;1.75;;
75941;SDS011;64622;46.220;19.878;2023-07-30T09:39:49;6.95;;;1.60;;
75941;SDS011;64622;46.220;19.878;2023-07-30T09:42:15;6.40;;;1.77;;
75941;SDS011;64622;46.220;19.878;2023-07-30T09:44:43;7.22;;;1.52;;
75941;SDS011;64622;46.220;19.878;2023-07-30T09:47:12;5.57;;;1.25;;
75941;SDS011;64622;46.220;19.878;2023-07-30T09:49:39;6.68;;;1.80;;
75941;SDS011;64622;46.220;19.878;2023-07-30T09:52:06;7.32;;;1.80;;
75941;SDS011;64622;46.220;19.878;2023-07-30T09:54:32;6.17;;;1.47;;
75941;SDS011;64622;46.220;19.878;2023-07-30T09:56:59;6.07;;;1.35;;
75941;SDS011;64622;46.220;19.878;2023-07-30T09:59:26;19.58;;;3.25;;
75941;SDS011;64622;46.220;19.878;2023-07-30T10:01:53;11.95;;;2.70;;
75941;SDS011;64622;46.220;19.878;2023-07-30T10:04:22;6.93;;;1.60;;
75941;SDS011;64622;46.220;19.878;2023-07-30T10:06:51;7.43;;;1.27;;
75941;SDS011;64622;46.220;19.878;2023-07-30T10:09:23;8.30;;;1.60;;
75941;SDS011;64622;46.220;19.878;2023-07-30T10:11:54;6.20;;;1.40;;
75941;SDS011;64622;46.220;19.878;2023-07-30T10:14:22;6.25;;;1.67;;
75941;SDS011;64622;46.220;19.878;2023-07-30T10:16:52;6.82;;;1.50;;
75941;SDS011;64622;46.220;19.878;2023-07-30T10:19:24;5.40;;;1.53;;
75941;SDS011;64622;46.220;19.878;2023-07-30T10:22:19;6.18;;;1.40;;
75941;SDS011;64622;46.220;19.878;2023-07-30T10:27:35;6.95;;;1.50;;
75941;SDS011;64622;46.220;19.878;2023-07-30T10:30:08;6.82;;;1.55;;
75941;SDS011;64622;46.220;19.878;2023-07-30T10:32:57;9.87;;;1.77;;
75941;SDS011;64622;46.220;19.878;2023-07-30T10:35:45;6.72;;;2.17;;
75941;SDS011;64622;46.220;19.878;2023-07-30T10:41:09;6.72;;;1.92;;
75941;SDS011;64622;46.220;19.878;2023-07-30T10:43:39;6.87;;;1.98;;
75941;SDS011;64622;46.220;19.878;2023-07-30T10:46:08;5.57;;;1.63;;
75941;SDS011;64622;46.220;19.878;2023-07-30T10:48:39;7.18;;;1.77;;
75941;SDS011;64622;46.220;19.878;2023-07-30T10:51:18;6.65;;;1.95;;
75941;SDS011;64622;46.220;19.878;2023-07-30T10:53:47;5.85;;;1.60;;
75941;SDS011;64622;46.220;19.878;2023-07-30T10:56:17;6.65;;;1.60;;
75941;SDS011;64622;46.220;19.878;2023-07-30T10:58:51;5.87;;;1.73;;
75941;SDS011;64622;46.220;19.878;2023-07-30T11:01:18;7.00;;;1.60;;
75941;SDS011;64622;46.220;19.878;2023-07-30T11:03:49;7.62;;;1.60;;
75941;SDS011;64622;46.220;19.878;2023-07-30T11:06:22;6.00;;;1.80;;
75941;SDS011;64622;46.220;19.878;2023-07-30T11:08:50;9.25;;;2.03;;
75941;SDS011;64622;46.220;19.878;2023-07-30T11:11:16;9.57;;;2.10;;
75941;SDS011;64622;46.220;19.878;2023-07-30T11:13:44;7.05;;;1.80;;
75941;SDS011;64622;46.220;19.878;2023-07-30T11:16:15;7.40;;;1.90;;
75941;SDS011;64622;46.220;19.878;2023-07-30T11:18:42;6.85;;;2.08;;
75941;SDS011;64622;46.220;19.878;2023-07-30T11:21:11;6.70;;;1.87;;
75941;SDS011;64622;46.220;19.878;2023-07-30T11:23:39;10.27;;;2.27;;
75941;SDS011;64622;46.220;19.878;2023-07-30T11:26:14;8.40;;;1.85;;
75941;SDS011;64622;46.220;19.878;2023-07-30T11:28:42;6.85;;;2.03;;
75941;SDS011;64622;46.220;19.878;2023-07-30T11:31:10;9.40;;;1.80;;
75941;SDS011;64622;46.220;19.878;2023-07-30T11:33:40;8.93;;;1.60;;
75941;SDS011;64622;46.220;19.878;2023-07-30T11:36:21;8.50;;;1.77;;
75941;SDS011;64622;46.220;19.878;2023-07-30T11:38:51;15.05;;;3.58;;
75941;SDS011;64622;46.220;19.878;2023-07-30T11:41:20;6.90;;;1.92;;
75941;SDS011;64622;46.220;19.878;2023-07-30T11:43:49;8.90;;;2.40;;
75941;SDS011;64622;46.220;19.878;2023-07-30T11:46:18;12.82;;;3.30;;
75941;SDS011;64622;46.220;19.878;2023-07-30T11:48:46;12.57;;;3.10;;
75941;SDS011;64622;46.220;19.878;2023-07-30T11:51:32;8.82;;;2.78;;
75941;SDS011;64622;46.220;19.878;2023-07-30T11:54:00;9.60;;;3.28;;
75941;SDS011;64622;46.220;19.878;2023-07-30T11:56:28;15.02;;;4.00;;
75941;SDS011;64622;46.220;19.878;2023-07-30T11:58:57;9.45;;;2.90;;
75941;SDS011;64622;46.220;19.878;2023-07-30T12:01:30;13.27;;;3.60;;
75941;SDS011;64622;46.220;19.878;2023-07-30T12:04:01;11.82;;;3.28;;
75941;SDS011;64622;46.220;19.878;2023-07-30T12:06:41;9.40;;;3.50;;
75941;SDS011;64622;46.220;19.878;2023-07-30T12:09:12;11.20;;;3.28;;
75941;SDS011;64622;46.220;19.878;2023-07-30T12:11:57;10.45;;;3.20;;
75941;SDS011;64622;46.220;19.878;2023-07-30T12:14:29;12.53;;;3.97;;
75941;SDS011;64622;46.220;19.878;2023-07-30T12:17:10;12.85;;;3.30;;
75941;SDS011;64622;46.220;19.878;2023-07-30T12:19:36;8.77;;;2.90;;
75941;SDS011;64622;46.220;19.878;2023-07-30T12:22:03;9.52;;;3.08;;
75941;SDS011;64622;46.220;19.878;2023-07-30T12:24:30;9.02;;;3.20;;
75941;SDS011;64622;46.220;19.878;2023-07-30T12:26:56;9.10;;;3.50;;
75941;SDS011;64622;46.220;19.878;2023-07-30T12:29:24;9.60;;;3.35;;
75941;SDS011;64622;46.220;19.878;2023-07-30T12:31:51;10.32;;;4.07;;
75941;SDS011;64622;46.220;19.878;2023-07-30T12:34:20;13.20;;;4.62;;
75941;SDS011;64622;46.220;19.878;2023-07-30T12:36:46;9.30;;;4.43;;
75941;SDS011;64622;46.220;19.878;2023-07-30T12:39:12;11.63;;;4.17;;
75941;SDS011;64622;46.220;19.878;2023-07-30T12:41:39;10.25;;;4.72;;
75941;SDS011;64622;46.220;19.878;2023-07-30T12:44:06;8.88;;;4.55;;
75941;SDS011;64622;46.220;19.878;2023-07-30T12:46:32;9.60;;;4.55;;
75941;SDS011;64622;46.220;19.878;2023-07-30T12:48:59;11.48;;;5.45;;
75941;SDS011;64622;46.220;19.878;2023-07-30T12:51:30;11.70;;;4.90;;
75941;SDS011;64622;46.220;19.878;2023-07-30T12:53:57;9.45;;;4.35;;
75941;SDS011;64622;46.220;19.878;2023-07-30T12:56:24;9.32;;;3.60;;
75941;SDS011;64622;46.220;19.878;2023-07-30T12:58:52;10.30;;;3.50;;
75941;SDS011;64622;46.220;19.878;2023-07-30T13:01:18;8.82;;;3.08;;
75941;SDS011;64622;46.220;19.878;2023-07-30T13:03:45;7.80;;;3.00;;
75941;SDS011;64622;46.220;19.878;2023-07-30T13:06:13;7.95;;;2.70;;
75941;SDS011;64622;46.220;19.878;2023-07-30T13:08:39;7.80;;;2.20;;
75941;SDS011;64622;46.220;19.878;2023-07-30T13:11:06;6.97;;;2.25;;
75941;SDS011;64622;46.220;19.878;2023-07-30T13:13:33;7.00;;;2.03;;
75941;SDS011;64622;46.220;19.878;2023-07-30T13:16:00;6.80;;;1.97;;
75941;SDS011;64622;46.220;19.878;2023-07-30T13:18:28;6.45;;;2.28;;
75941;SDS011;64622;46.220;19.878;2023-07-30T13:20:54;6.65;;;2.08;;
75941;SDS011;64622;46.220;19.878;2023-07-30T13:23:22;8.75;;;2.05;;
75941;SDS011;64622;46.220;19.878;2023-07-30T13:25:51;7.60;;;2.35;;
75941;SDS011;64622;46.220;19.878;2023-07-30T13:28:18;7.47;;;2.03;;
75941;SDS011;64622;46.220;19.878;2023-07-30T13:30:44;6.90;;;2.00;;
75941;SDS011;64622;46.220;19.878;2023-07-30T13:33:11;8.43;;;2.25;;
75941;SDS011;64622;46.220;19.878;2023-07-30T13:35:38;7.55;;;2.55;;
75941;SDS011;64622;46.220;19.878;2023-07-30T13:38:04;7.50;;;2.35;;
75941;SDS011;64622;46.220;19.878;2023-07-30T13:40:31;6.83;;;2.13;;
75941;SDS011;64622;46.220;19.878;2023-07-30T13:42:58;6.80;;;2.22;;
75941;SDS011;64622;46.220;19.878;2023-07-30T13:45:24;6.62;;;2.45;;
75941;SDS011;64622;46.220;19.878;2023-07-30T13:47:51;6.57;;;2.30;;
75941;SDS011;64622;46.220;19.878;2023-07-30T13:50:18;7.65;;;2.40;;
75941;SDS011;64622;46.220;19.878;2023-07-30T13:52:45;9.47;;;2.60;;
75941;SDS011;64622;46.220;19.878;2023-07-30T13:55:13;8.57;;;2.10;;
75941;SDS011;64622;46.220;19.878;2023-07-30T13:57:39;9.68;;;2.08;;
75941;SDS011;64622;46.220;19.878;2023-07-30T14:00:06;6.70;;;1.75;;
75941;SDS011;64622;46.220;19.878;2023-07-30T14:02:34;7.40;;;2.08;;
75941;SDS011;64622;46.220;19.878;2023-07-30T14:05:01;6.63;;;2.20;;
75941;SDS011;64622;46.220;19.878;2023-07-30T14:07:28;10.10;;;2.50;;
75941;SDS011;64622;46.220;19.878;2023-07-30T14:09:54;7.10;;;2.58;;
75941;SDS011;64622;46.220;19.878;2023-07-30T14:12:21;6.85;;;2.40;;
75941;SDS011;64622;46.220;19.878;2023-07-30T14:14:48;6.80;;;2.28;;
75941;SDS011;64622;46.220;19.878;2023-07-30T14:17:15;10.90;;;2.77;;
75941;SDS011;64622;46.220;19.878;2023-07-30T14:19:41;9.18;;;2.53;;
75941;SDS011;64622;46.220;19.878;2023-07-30T14:22:11;9.02;;;2.80;;
75941;SDS011;64622;46.220;19.878;2023-07-30T14:24:37;8.27;;;2.83;;
75941;SDS011;64622;46.220;19.878;2023-07-30T14:27:06;7.40;;;2.70;;
75941;SDS011;64622;46.220;19.878;2023-07-30T14:29:32;7.77;;;2.50;;
75941;SDS011;64622;46.220;19.878;2023-07-30T14:31:59;8.70;;;2.42;;
75941;SDS011;64622;46.220;19.878;2023-07-30T14:34:26;6.82;;;2.40;;
75941;SDS011;64622;46.220;19.878;2023-07-30T14:36:52;7.70;;;2.47;;